Time;durP1;ratioP1;P1;durP2;ratioP2;P2;SDS_P1;SDS_P2;PMS_P1;PMS_P2;Temp;Humidity;BMP_temperature;BMP_pressure;BME280_temperature;BME280_humidity;BME280_pressure;Samples;Min_cycle;Max_cycle;Signal;HPM_P1;HPM_P2
2021/12/11 00:00:33;;;;;;;1.80;1.00;;;4.20;99.90;;;;;;4987832;28;20057;-80
2021/12/11 00:03:13;;;;;;;1.10;1.00;;;4.20;99.90;;;;;;4982249;28;20072;-80
2021/12/11 00:05:40;;;;;;;1.73;0.70;;;4.10;99.90;;;;;;4974742;28;20026;-78
2021/12/11 00:08:08;;;;;;;1.15;1.05;;;4.00;99.90;;;;;;4978488;28;20022;-76
2021/12/11 00:10:45;;;;;;;1.55;1.00;;;4.00;99.90;;;;;;4973077;28;20038;-77
2021/12/11 00:13:17;;;;;;;0.80;0.80;;;4.00;99.90;;;;;;4985276;28;20373;-79
2021/12/11 00:15:46;;;;;;;0.88;0.88;;;4.00;99.90;;;;;;4986022;28;20510;-77
2021/12/11 00:18:18;;;;;;;0.88;0.88;;;4.20;99.90;;;;;;4978057;28;20054;-78
2021/12/11 00:20:56;;;;;;;1.13;0.93;;;4.10;99.90;;;;;;4978037;28;20018;-77
2021/12/11 00:23:49;;;;;;;2.90;0.85;;;4.10;99.90;;;;;;4974179;28;20046;-77
2021/12/11 00:26:33;;;;;;;1.73;1.10;;;4.10;99.90;;;;;;4984752;28;20026;-78
2021/12/11 00:28:59;;;;;;;1.05;0.95;;;4.00;99.90;;;;;;4981997;28;20423;-79
2021/12/11 00:31:28;;;;;;;1.00;0.90;;;4.00;99.90;;;;;;4982288;28;20041;-77
2021/12/11 00:33:55;;;;;;;1.27;1.10;;;4.00;99.90;;;;;;4981729;28;20410;-79
2021/12/11 00:36:24;;;;;;;2.88;1.10;;;4.00;99.90;;;;;;4974422;28;20383;-79
2021/12/11 00:38:52;;;;;;;2.35;1.50;;;3.90;99.90;;;;;;4974387;28;20035;-80
2021/12/11 00:41:21;;;;;;;1.95;1.25;;;3.90;99.90;;;;;;4987218;28;20101;-78
2021/12/11 00:43:49;;;;;;;2.65;2.00;;;3.60;99.90;;;;;;4985544;28;20057;-77
2021/12/11 00:46:26;;;;;;;2.75;1.23;;;3.30;99.90;;;;;;4983869;28;20134;-76
2021/12/11 00:48:53;;;;;;;2.65;1.80;;;3.00;99.90;;;;;;4989402;28;20390;-78
2021/12/11 00:51:22;;;;;;;3.17;1.55;;;2.90;99.90;;;;;;4982283;28;20038;-78
2021/12/11 00:53:50;;;;;;;2.38;2.17;;;2.90;99.90;;;;;;4997432;28;20041;-78
2021/12/11 00:56:37;;;;;;;1.83;1.73;;;2.90;99.90;;;;;;4986295;28;20023;-78
2021/12/11 00:59:08;;;;;;;2.10;1.90;;;2.80;99.90;;;;;;4985167;28;20572;-78
2021/12/11 01:01:55;;;;;;;2.40;2.20;;;2.80;99.90;;;;;;4980672;28;20058;-78
2021/12/11 01:04:41;;;;;;;2.45;1.70;;;2.70;99.90;;;;;;4981282;28;20041;-79
2021/12/11 01:07:20;;;;;;;3.63;2.13;;;2.80;99.90;;;;;;4979972;28;20522;-78
2021/12/11 01:10:22;;;;;;;1.52;1.42;;;2.70;99.90;;;;;;4976834;28;20038;-78
2021/12/11 01:12:56;;;;;;;3.33;1.60;;;2.70;99.90;;;;;;4982100;28;20027;-78
2021/12/11 01:15:25;;;;;;;4.22;1.50;;;2.70;99.90;;;;;;4983364;28;20077;-79
2021/12/11 01:18:10;;;;;;;1.63;1.52;;;2.70;99.90;;;;;;4978342;28;20026;-78
2021/12/11 01:21:04;;;;;;;2.05;1.50;;;2.70;99.90;;;;;;4985569;28;20048;-78
2021/12/11 01:26:08;;;;;;;1.33;1.23;;;2.70;99.90;;;;;;4985625;28;20038;-73
2021/12/11 01:28:35;;;;;;;2.67;1.00;;;2.80;99.90;;;;;;4986284;28;20010;-74
2021/12/11 01:31:03;;;;;;;0.90;0.90;;;2.90;99.90;;;;;;4986683;28;20033;-73
2021/12/11 01:33:29;;;;;;;0.50;0.50;;;2.80;99.90;;;;;;4985328;28;20031;-77
2021/12/11 01:35:55;;;;;;;1.58;0.85;;;2.80;99.90;;;;;;4989547;28;20086;-76
2021/12/11 01:38:24;;;;;;;0.98;0.90;;;2.70;99.90;;;;;;4985101;28;20058;-79
2021/12/11 01:40:52;;;;;;;1.60;0.60;;;2.70;99.90;;;;;;4988677;28;20469;-77
2021/12/11 01:43:21;;;;;;;0.93;0.73;;;2.70;99.90;;;;;;4983468;28;20037;-77
2021/12/11 01:45:49;;;;;;;0.80;0.50;;;2.70;99.90;;;;;;4984999;28;20030;-77
2021/12/11 01:48:22;;;;;;;0.50;0.50;;;2.70;99.90;;;;;;4991867;28;20474;-77
2021/12/11 01:50:58;;;;;;;0.60;0.60;;;2.70;99.90;;;;;;4987186;28;20034;-73
2021/12/11 01:53:30;;;;;;;0.65;0.50;;;2.80;99.90;;;;;;4987135;28;20030;-74
2021/12/11 01:56:04;;;;;;;1.83;0.70;;;2.80;99.90;;;;;;4998943;28;20069;-74
2021/12/11 01:58:38;;;;;;;0.50;0.50;;;2.80;99.90;;;;;;4990691;28;20104;-76
2021/12/11 02:01:15;;;;;;;0.82;0.47;;;2.80;99.90;;;;;;4995942;28;20042;-75
2021/12/11 02:03:41;;;;;;;0.50;0.50;;;2.80;99.90;;;;;;4985949;28;20037;-75
2021/12/11 02:06:08;;;;;;;0.57;0.57;;;2.80;99.90;;;;;;4980156;28;20438;-74
2021/12/11 02:08:37;;;;;;;0.63;0.40;;;2.80;99.90;;;;;;4984228;28;20031;-75
2021/12/11 02:11:18;;;;;;;0.60;0.60;;;2.80;99.90;;;;;;4988374;28;20033;-76
2021/12/11 02:13:50;;;;;;;0.65;0.65;;;2.70;99.90;;;;;;4982413;28;20034;-77
2021/12/11 02:16:38;;;;;;;0.55;0.55;;;2.80;99.90;;;;;;4981105;28;20122;-76
2021/12/11 02:19:13;;;;;;;1.25;0.82;;;2.70;99.90;;;;;;4984745;28;20026;-75
2021/12/11 02:22:01;;;;;;;0.60;0.60;;;2.70;99.90;;;;;;4978984;28;20053;-76
2021/12/11 02:24:45;;;;;;;0.50;0.50;;;2.70;99.90;;;;;;4993573;28;20037;-74
2021/12/11 02:27:35;;;;;;;0.80;0.80;;;2.60;99.90;;;;;;4978519;28;20506;-76
2021/12/11 02:30:09;;;;;;;0.63;0.63;;;2.60;99.90;;;;;;4985268;28;20030;-75
2021/12/11 02:32:46;;;;;;;0.80;0.80;;;2.60;99.90;;;;;;4977394;28;20486;-75
2021/12/11 02:35:32;;;;;;;0.60;0.60;;;2.60;99.90;;;;;;4987414;28;20502;-76
2021/12/11 02:38:08;;;;;;;0.63;0.60;;;2.60;99.90;;;;;;4984667;28;20026;-75
2021/12/11 02:40:53;;;;;;;0.70;0.70;;;2.60;99.90;;;;;;4985126;28;20026;-75
2021/12/11 02:43:31;;;;;;;0.70;0.70;;;2.50;99.90;;;;;;5007691;28;20030;-74
2021/12/11 02:46:18;;;;;;;2.72;0.80;;;2.60;99.90;;;;;;4985894;28;20034;-74
2021/12/11 02:49:00;;;;;;;0.77;0.77;;;2.60;99.90;;;;;;4984612;28;20018;-74
2021/12/11 02:51:50;;;;;;;1.05;0.95;;;2.60;99.90;;;;;;4985101;28;20101;-74
2021/12/11 02:54:33;;;;;;;2.20;1.00;;;2.60;99.90;;;;;;4991332;28;20125;-75
2021/12/11 02:57:04;;;;;;;1.23;1.13;;;2.60;99.90;;;;;;4987856;28;20041;-75
2021/12/11 02:59:38;;;;;;;1.05;0.95;;;2.60;99.90;;;;;;4988682;28;20023;-74
2021/12/11 03:02:11;;;;;;;0.90;0.90;;;2.70;99.90;;;;;;5006522;28;20065;-74
2021/12/11 03:04:43;;;;;;;1.30;1.20;;;2.70;99.90;;;;;;5010340;28;20022;-74
2021/12/11 03:07:13;;;;;;;1.05;0.90;;;2.70;99.90;;;;;;4984651;28;20058;-74
2021/12/11 03:09:47;;;;;;;2.60;1.17;;;2.70;99.90;;;;;;4990442;28;20022;-74
2021/12/11 03:12:14;;;;;;;1.52;1.42;;;2.70;99.90;;;;;;4986064;28;20034;-73
2021/12/11 03:14:41;;;;;;;0.93;0.93;;;2.70;99.90;;;;;;4994443;28;20029;-73
2021/12/11 03:17:09;;;;;;;1.25;1.15;;;2.70;99.90;;;;;;4988387;28;20077;-74
2021/12/11 03:19:39;;;;;;;1.17;1.08;;;2.70;99.90;;;;;;4985974;28;20053;-75
2021/12/11 03:22:09;;;;;;;0.93;0.93;;;2.70;99.90;;;;;;4992056;28;20025;-74
2021/12/11 03:24:35;;;;;;;0.80;0.80;;;2.70;99.90;;;;;;4984770;28;20023;-74
2021/12/11 03:27:02;;;;;;;3.50;1.23;;;2.70;99.90;;;;;;4980783;28;20099;-74
2021/12/11 03:29:28;;;;;;;1.00;1.00;;;2.70;99.90;;;;;;4990809;28;20478;-76
2021/12/11 03:31:54;;;;;;;1.00;1.00;;;2.70;99.90;;;;;;4986491;28;20453;-74
2021/12/11 03:34:24;;;;;;;1.02;1.00;;;2.70;99.90;;;;;;4985075;28;20018;-75
2021/12/11 03:36:51;;;;;;;1.38;1.27;;;2.70;99.90;;;;;;4983658;28;20034;-74
2021/12/11 03:39:27;;;;;;;0.90;0.90;;;2.80;99.90;;;;;;4986577;28;20031;-76
2021/12/11 03:41:55;;;;;;;1.13;1.10;;;2.80;99.90;;;;;;4983493;28;20031;-73
2021/12/11 03:44:21;;;;;;;0.93;0.93;;;2.80;99.90;;;;;;4990573;28;20491;-74
2021/12/11 03:46:50;;;;;;;1.20;1.10;;;2.80;99.90;;;;;;4983966;28;20046;-74
2021/12/11 03:49:18;;;;;;;1.20;1.10;;;2.80;99.90;;;;;;4994129;28;20026;-74
2021/12/11 03:51:46;;;;;;;2.30;1.08;;;2.90;99.90;;;;;;4997433;28;20509;-74
2021/12/11 03:54:16;;;;;;;1.00;1.00;;;2.90;99.90;;;;;;4983652;28;20046;-75
2021/12/11 03:56:42;;;;;;;1.80;1.70;;;2.90;99.90;;;;;;4981604;28;20077;-74
2021/12/11 03:59:10;;;;;;;1.75;1.50;;;2.90;99.90;;;;;;4990297;28;20081;-73
2021/12/11 04:01:52;;;;;;;1.40;1.05;;;2.90;99.90;;;;;;4982769;28;20022;-74
2021/12/11 04:04:39;;;;;;;1.55;1.45;;;2.90;99.90;;;;;;5005424;28;20026;-75
2021/12/11 04:07:10;;;;;;;3.05;1.60;;;2.90;99.90;;;;;;4977311;28;20034;-74
2021/12/11 04:09:35;;;;;;;;;;;2.90;99.90;;;;;;4989695;28;20019;-74
2021/12/11 04:12:03;;;;;;;1.10;1.10;;;2.90;99.90;;;;;;4985961;28;19906;-75
2021/12/11 04:14:32;;;;;;;1.88;1.77;;;2.90;99.90;;;;;;4989896;28;20015;-74
2021/12/11 04:16:59;;;;;;;2.03;1.80;;;2.90;99.90;;;;;;4982748;28;20027;-75
2021/12/11 04:19:26;;;;;;;2.08;1.98;;;2.80;99.90;;;;;;4979597;28;20046;-75
2021/12/11 04:21:52;;;;;;;2.33;2.03;;;2.80;99.90;;;;;;4991657;28;20019;-74
2021/12/11 04:24:21;;;;;;;2.17;1.98;;;2.80;99.90;;;;;;4993451;28;20510;-75
2021/12/11 04:26:49;;;;;;;1.75;1.65;;;2.80;99.90;;;;;;4986608;28;20743;-74
2021/12/11 04:29:14;;;;;;;2.55;2.35;;;2.80;99.90;;;;;;4992915;28;20026;-75
2021/12/11 04:31:43;;;;;;;3.05;2.72;;;2.80;99.90;;;;;;4986451;28;20041;-73
2021/12/11 04:34:10;;;;;;;2.13;2.03;;;2.80;99.90;;;;;;4993673;28;20038;-74
2021/12/11 04:36:46;;;;;;;2.95;2.70;;;2.90;99.90;;;;;;5001330;28;20026;-74
2021/12/11 04:39:16;;;;;;;3.08;2.88;;;2.90;99.90;;;;;;5002723;28;20026;-75
2021/12/11 04:41:56;;;;;;;2.92;2.72;;;2.90;99.90;;;;;;5001031;28;20022;-74
2021/12/11 04:44:31;;;;;;;2.60;2.40;;;2.90;99.90;;;;;;4992374;28;20102;-73
2021/12/11 04:46:57;;;;;;;4.18;2.72;;;2.90;99.90;;;;;;4986977;28;20026;-73
2021/12/11 04:49:35;;;;;;;2.03;1.92;;;2.80;99.90;;;;;;4982213;28;20029;-74
2021/12/11 04:52:11;;;;;;;2.20;2.08;;;2.90;99.90;;;;;;4991592;28;20014;-74
2021/12/11 04:55:01;;;;;;;2.67;2.47;;;2.90;99.90;;;;;;4985117;28;20027;-74
2021/12/11 05:00:09;;;;;;;2.58;2.45;;;2.90;99.90;;;;;;4991922;28;20419;-75
2021/12/11 05:08:37;;;;;;;3.00;2.72;;;2.90;99.90;;;;;;4984200;28;20029;-73
2021/12/11 05:11:02;;;;;;;3.17;2.60;;;2.80;99.90;;;;;;4989253;28;20033;-74
2021/12/11 05:13:29;;;;;;;2.90;2.70;;;2.80;99.90;;;;;;4983781;28;20029;-73
2021/12/11 05:16:00;;;;;;;3.05;2.85;;;2.80;99.90;;;;;;5001429;28;20029;-74
2021/12/11 05:18:28;;;;;;;3.65;3.35;;;2.80;99.90;;;;;;4982942;28;20039;-75
2021/12/11 05:20:58;;;;;;;3.97;3.67;;;2.80;99.90;;;;;;4999798;28;20061;-73
2021/12/11 05:23:24;;;;;;;3.88;3.58;;;2.80;99.90;;;;;;4981166;28;20015;-75
2021/12/11 05:25:50;;;;;;;4.40;4.00;;;2.80;99.90;;;;;;4985399;28;20030;-74
2021/12/11 05:28:16;;;;;;;4.05;3.75;;;2.80;99.90;;;;;;4983569;28;20022;-75
2021/12/11 05:30:45;;;;;;;4.53;4.22;;;2.80;99.90;;;;;;4987494;28;20027;-74
2021/12/11 05:33:11;;;;;;;3.30;3.10;;;2.80;99.90;;;;;;4982555;28;20027;-73
2021/12/11 05:35:40;;;;;;;3.63;3.33;;;2.80;99.90;;;;;;4991459;28;20474;-74
2021/12/11 05:38:08;;;;;;;4.10;3.70;;;2.80;99.90;;;;;;4984862;28;20027;-74
2021/12/11 05:40:35;;;;;;;3.78;3.47;;;2.80;99.90;;;;;;4979037;28;20027;-74
2021/12/11 05:43:03;;;;;;;3.70;3.40;;;2.80;99.90;;;;;;4983914;28;20057;-73
2021/12/11 05:45:28;;;;;;;3.83;3.53;;;2.80;99.90;;;;;;4982016;28;20162;-74
2021/12/11 05:47:55;;;;;;;4.35;3.95;;;2.80;99.90;;;;;;4992284;28;20503;-74
2021/12/11 05:50:27;;;;;;;3.92;3.53;;;2.80;99.90;;;;;;4983703;28;20022;-74
2021/12/11 05:52:53;;;;;;;4.13;3.78;;;2.90;99.90;;;;;;4991695;28;20034;-74
2021/12/11 05:55:21;;;;;;;3.70;3.40;;;2.90;99.90;;;;;;4980788;28;20120;-76
2021/12/11 05:57:53;;;;;;;4.32;4.03;;;2.80;99.90;;;;;;4990470;28;20485;-73
2021/12/11 06:00:24;;;;;;;4.80;4.43;;;2.80;99.90;;;;;;4982505;28;20034;-74
2021/12/11 06:02:49;;;;;;;4.72;4.40;;;2.80;99.90;;;;;;4990225;28;20019;-73
2021/12/11 06:05:15;;;;;;;5.22;4.53;;;2.80;99.90;;;;;;4974370;28;20030;-74
2021/12/11 06:07:43;;;;;;;4.60;4.30;;;2.90;99.90;;;;;;4981268;28;20018;-76
2021/12/11 06:10:14;;;;;;;4.40;4.10;;;2.80;99.90;;;;;;4992940;28;20046;-74
2021/12/11 06:12:40;;;;;;;3.80;3.50;;;2.90;99.90;;;;;;4979893;28;20019;-74
2021/12/11 06:15:07;;;;;;;5.15;4.75;;;2.90;99.90;;;;;;4992587;28;20394;-74
2021/12/11 06:17:34;;;;;;;4.90;4.50;;;2.80;99.90;;;;;;4989453;28;20555;-74
2021/12/11 06:20:03;;;;;;;5.78;5.00;;;2.80;99.90;;;;;;4987292;28;20027;-75
2021/12/11 06:22:31;;;;;;;5.65;5.25;;;2.80;99.90;;;;;;4995493;28;20393;-74
2021/12/11 06:25:00;;;;;;;6.30;5.70;;;2.80;99.90;;;;;;4986547;28;20018;-74
2021/12/11 06:27:27;;;;;;;5.70;5.18;;;2.90;99.90;;;;;;4985698;28;20333;-75
2021/12/11 06:29:53;;;;;;;5.10;4.70;;;2.90;99.90;;;;;;4986397;28;20044;-75
2021/12/11 06:32:19;;;;;;;5.40;4.90;;;2.90;99.90;;;;;;4984484;28;20030;-74
2021/12/11 06:34:45;;;;;;;6.70;6.20;;;2.90;99.90;;;;;;4993613;28;20022;-74
2021/12/11 06:37:14;;;;;;;5.30;4.88;;;2.90;99.90;;;;;;4985667;28;20502;-74
2021/12/11 06:39:41;;;;;;;5.07;4.65;;;2.90;99.90;;;;;;4990731;28;20454;-73
2021/12/11 06:42:09;;;;;;;7.10;6.50;;;2.90;99.90;;;;;;5001426;28;20015;-74
2021/12/11 06:44:37;;;;;;;6.20;5.70;;;3.00;99.90;;;;;;4986154;28;20449;-75
2021/12/11 06:47:07;;;;;;;6.80;6.10;;;3.00;99.90;;;;;;4992402;28;20438;-75
2021/12/11 06:49:34;;;;;;;7.63;7.03;;;3.00;99.90;;;;;;4986465;28;20030;-75
2021/12/11 06:52:03;;;;;;;8.23;7.53;;;3.00;99.90;;;;;;4991815;28;20068;-75
2021/12/11 06:54:29;;;;;;;8.35;7.65;;;3.00;99.90;;;;;;4986941;28;20478;-75
2021/12/11 06:56:55;;;;;;;8.00;7.40;;;3.00;99.90;;;;;;4990592;28;20037;-74
2021/12/11 06:59:21;;;;;;;8.45;7.75;;;3.00;99.90;;;;;;4985403;28;20025;-74
2021/12/11 07:01:47;;;;;;;8.18;7.53;;;3.00;99.90;;;;;;4985896;28;20045;-74
2021/12/11 07:04:12;;;;;;;8.50;7.80;;;3.00;99.90;;;;;;4984165;28;20475;-75
2021/12/11 07:06:43;;;;;;;6.80;6.15;;;3.00;99.90;;;;;;4978729;28;20026;-74
2021/12/11 07:09:10;;;;;;;8.75;7.95;;;3.00;99.90;;;;;;4990186;28;20019;-74
2021/12/11 07:11:42;;;;;;;9.43;8.13;;;3.00;99.90;;;;;;4988510;28;20030;-74
2021/12/11 07:14:09;;;;;;;9.35;8.55;;;3.00;99.90;;;;;;4991492;28;20029;-73
2021/12/11 07:16:36;;;;;;;9.40;8.60;;;3.00;99.90;;;;;;4986864;28;20504;-74
2021/12/11 07:19:03;;;;;;;9.32;8.48;;;3.00;99.90;;;;;;5001568;28;20041;-75
2021/12/11 07:21:28;;;;;;;7.97;7.30;;;3.00;99.90;;;;;;4986843;28;20023;-74
2021/12/11 07:23:54;;;;;;;9.50;8.70;;;3.00;99.90;;;;;;4986119;28;20023;-74
2021/12/11 07:26:29;;;;;;;8.70;7.88;;;3.00;99.90;;;;;;4987426;28;20030;-74
2021/12/11 07:28:57;;;;;;;9.20;8.38;;;3.00;99.90;;;;;;4983342;28;20549;-74
2021/12/11 07:31:24;;;;;;;8.60;7.80;;;3.00;99.90;;;;;;4990992;28;20045;-73
2021/12/11 07:33:51;;;;;;;7.85;7.15;;;3.00;99.90;;;;;;4989433;28;20671;-74
2021/12/11 07:36:17;;;;;;;9.52;8.27;;;3.10;99.90;;;;;;4988648;28;20039;-75
2021/12/11 07:38:43;;;;;;;9.82;8.98;;;3.10;99.90;;;;;;4989519;28;20086;-74
2021/12/11 07:41:12;;;;;;;11.63;9.05;;;3.00;99.90;;;;;;4988051;28;20030;-73
2021/12/11 07:43:40;;;;;;;10.20;9.30;;;3.10;99.90;;;;;;4985899;28;20030;-74
2021/12/11 07:46:07;;;;;;;10.27;9.38;;;3.00;99.90;;;;;;4992112;28;20421;-76
2021/12/11 07:48:33;;;;;;;10.85;9.75;;;3.10;99.90;;;;;;4988036;28;20493;-74
2021/12/11 07:50:59;;;;;;;11.85;10.23;;;3.00;99.90;;;;;;4986327;28;20053;-73
2021/12/11 07:53:25;;;;;;;10.35;9.20;;;3.10;99.90;;;;;;4990442;28;20030;-73
2021/12/11 07:55:52;;;;;;;11.25;10.05;;;3.00;99.90;;;;;;4985606;28;20419;-74
2021/12/11 07:58:19;;;;;;;10.57;9.57;;;3.10;99.90;;;;;;4988785;28;20035;-73
2021/12/11 08:00:46;;;;;;;10.05;8.98;;;3.00;99.90;;;;;;4988077;28;20542;-73
2021/12/11 08:03:14;;;;;;;12.38;10.30;;;3.10;99.90;;;;;;4985706;28;20108;-75
2021/12/11 08:05:43;;;;;;;12.23;11.05;;;3.10;99.90;;;;;;4986878;28;20019;-75
2021/12/11 08:08:10;;;;;;;10.65;9.63;;;3.10;99.90;;;;;;4984722;28;20197;-75
2021/12/11 08:10:38;;;;;;;10.27;9.27;;;3.10;99.90;;;;;;4984480;28;20037;-74
2021/12/11 08:13:05;;;;;;;11.27;10.25;;;3.10;99.90;;;;;;4980579;28;20084;-74
2021/12/11 08:15:31;;;;;;;11.50;10.50;;;3.10;99.90;;;;;;4981372;28;20410;-75
2021/12/11 08:17:56;;;;;;;10.68;9.43;;;3.10;99.90;;;;;;4986631;28;20033;-74
2021/12/11 08:20:25;;;;;;;11.48;10.30;;;3.10;99.90;;;;;;4979560;28;20034;-75
2021/12/11 08:22:52;;;;;;;11.57;10.38;;;3.10;99.90;;;;;;4984269;28;20022;-74
2021/12/11 08:25:19;;;;;;;11.07;9.85;;;3.10;99.90;;;;;;4995898;28;20105;-75
2021/12/11 08:27:45;;;;;;;12.55;11.40;;;3.10;99.90;;;;;;4983454;28;20050;-75
2021/12/11 08:30:11;;;;;;;14.60;11.20;;;3.10;99.90;;;;;;4980116;28;20065;-75
2021/12/11 08:32:37;;;;;;;12.32;11.05;;;3.10;99.90;;;;;;4984102;28;20554;-74
2021/12/11 08:35:05;;;;;;;11.25;10.25;;;3.10;99.90;;;;;;4982499;28;20089;-74
2021/12/11 08:37:32;;;;;;;10.73;9.63;;;3.10;99.90;;;;;;4981460;28;20046;-74
2021/12/11 08:39:58;;;;;;;12.15;10.95;;;3.10;99.90;;;;;;4980698;28;20033;-74
2021/12/11 08:42:26;;;;;;;11.82;10.63;;;3.20;99.90;;;;;;4979815;28;20030;-75
2021/12/11 08:44:57;;;;;;;12.65;10.43;;;3.20;99.90;;;;;;4983165;28;20248;-74
2021/12/11 08:47:24;;;;;;;13.23;11.25;;;3.20;99.90;;;;;;4996668;28;20475;-74
2021/12/11 08:49:52;;;;;;;12.27;11.07;;;3.20;99.90;;;;;;4980032;28;20084;-74
2021/12/11 08:52:20;;;;;;;13.45;11.88;;;3.20;99.90;;;;;;4989448;28;20113;-74
2021/12/11 08:54:47;;;;;;;13.23;11.85;;;3.30;99.90;;;;;;4990003;28;20453;-75
2021/12/11 08:57:18;;;;;;;13.18;11.77;;;3.20;99.90;;;;;;4987037;28;20385;-76
2021/12/11 08:59:48;;;;;;;12.98;11.63;;;3.30;99.90;;;;;;4994579;28;20432;-74
2021/12/11 09:02:21;;;;;;;12.45;11.15;;;3.30;99.90;;;;;;4988023;28;20045;-75
2021/12/11 09:04:56;;;;;;;18.58;12.70;;;3.30;99.90;;;;;;4973065;28;20110;-76
2021/12/11 09:07:34;;;;;;;12.07;10.88;;;3.40;99.90;;;;;;4983271;28;20023;-75
2021/12/11 09:10:03;;;;;;;10.00;8.68;;;3.40;99.90;;;;;;4986326;28;20026;-74
2021/12/11 09:12:38;;;;;;;11.60;10.27;;;3.30;99.90;;;;;;4975005;28;20058;-75
2021/12/11 09:15:13;;;;;;;11.48;9.95;;;3.40;99.90;;;;;;4975351;28;20021;-75
2021/12/11 09:17:44;;;;;;;11.27;10.27;;;3.40;99.90;;;;;;4983248;28;20018;-75
2021/12/11 09:20:19;;;;;;;;;;;3.40;99.90;;;;;;4981483;28;20019;-74
2021/12/11 09:23:01;;;;;;;11.25;8.73;;;3.50;99.90;;;;;;4973345;28;19910;-77
2021/12/11 09:25:35;;;;;;;10.10;9.02;;;3.50;99.90;;;;;;4986389;28;20030;-75
2021/12/11 09:28:27;;;;;;;9.00;8.18;;;3.50;99.90;;;;;;4991488;28;20030;-73
2021/12/11 09:31:16;;;;;;;9.75;8.48;;;3.50;99.90;;;;;;4986164;28;20026;-74
2021/12/11 09:33:48;;;;;;;10.13;9.07;;;3.50;99.90;;;;;;4983168;28;20019;-77
2021/12/11 09:36:20;;;;;;;11.02;9.82;;;3.60;99.90;;;;;;4978167;28;20025;-74
2021/12/11 09:38:59;;;;;;;9.80;8.80;;;3.60;99.90;;;;;;4987969;28;20022;-76
2021/12/11 09:41:25;;;;;;;9.90;8.05;;;3.60;99.90;;;;;;4991789;28;20058;-76
2021/12/11 09:44:08;;;;;;;13.30;9.02;;;3.70;99.90;;;;;;4989446;28;20026;-76
2021/12/11 09:46:49;;;;;;;8.77;7.88;;;3.70;99.90;;;;;;4988437;28;20014;-76
2021/12/11 09:49:20;;;;;;;9.52;8.68;;;3.80;99.90;;;;;;4987508;28;20030;-76
2021/12/11 09:51:48;;;;;;;9.15;8.35;;;3.80;99.90;;;;;;4989202;28;20069;-76
2021/12/11 09:54:19;;;;;;;9.00;8.15;;;3.80;99.90;;;;;;4987270;28;20414;-77
2021/12/11 09:56:57;;;;;;;7.05;6.40;;;3.90;99.90;;;;;;4989163;28;20022;-79
2021/12/11 09:59:25;;;;;;;9.23;8.32;;;3.90;99.90;;;;;;4989266;28;20448;-76
2021/12/11 10:01:58;;;;;;;8.43;7.07;;;3.90;99.90;;;;;;5004166;28;20023;-77
2021/12/11 10:04:31;;;;;;;7.57;6.88;;;3.90;99.90;;;;;;4985610;28;20018;-78
2021/12/11 10:09:31;;;;;;;7.70;6.83;;;3.90;99.90;;;;;;4985059;28;20042;-76
2021/12/11 10:11:59;;;;;;;8.23;7.40;;;4.00;99.90;;;;;;4988335;28;20459;-76
2021/12/11 10:14:37;;;;;;;8.00;7.30;;;4.00;99.90;;;;;;4985932;28;20033;-76
2021/12/11 10:17:09;;;;;;;6.93;6.28;;;4.10;99.90;;;;;;4989882;28;20109;-77
2021/12/11 10:19:35;;;;;;;6.70;6.10;;;4.10;99.90;;;;;;4991706;28;20026;-77
2021/12/11 10:22:24;;;;;;;6.40;5.78;;;4.20;99.90;;;;;;4990509;28;20038;-76
2021/12/11 10:24:52;;;;;;;7.35;6.63;;;4.40;99.90;;;;;;4974734;28;20026;-76
2021/12/11 10:27:22;;;;;;;7.40;6.70;;;4.30;99.90;;;;;;4981056;28;20014;-72
2021/12/11 10:29:50;;;;;;;8.00;6.20;;;4.30;99.90;;;;;;4979920;28;20025;-74
2021/12/11 10:32:21;;;;;;;5.03;4.38;;;4.30;99.90;;;;;;4982894;28;20616;-78
2021/12/11 10:34:49;;;;;;;;;;;4.30;99.90;;;;;;4980011;28;20014;-79
2021/12/11 10:37:20;;;;;;;6.88;5.82;;;4.30;99.90;;;;;;4981661;28;19906;-73
2021/12/11 10:39:48;;;;;;;;;;;4.40;99.90;;;;;;4984403;28;20109;-73
2021/12/11 10:42:14;;;;;;;6.72;5.88;;;4.40;99.90;;;;;;4979595;28;19948;-74
2021/12/11 10:44:43;;;;;;;6.70;6.10;;;4.40;99.90;;;;;;4985789;28;20022;-73
2021/12/11 10:47:26;;;;;;;6.72;5.57;;;4.50;99.90;;;;;;4989443;28;20409;-73
2021/12/11 10:49:53;;;;;;;7.85;6.72;;;4.40;99.90;;;;;;4988950;28;20033;-74
2021/12/11 10:52:26;;;;;;;6.95;6.35;;;4.40;99.90;;;;;;4989343;28;20417;-74
2021/12/11 10:54:54;;;;;;;5.40;4.90;;;4.50;99.90;;;;;;4984149;28;20057;-75
2021/12/11 10:57:22;;;;;;;5.63;5.13;;;4.40;99.90;;;;;;4994100;28;20501;-73
2021/12/11 10:59:54;;;;;;;7.22;6.50;;;4.40;99.90;;;;;;4987045;28;20022;-72
2021/12/11 11:02:26;;;;;;;6.38;5.75;;;4.50;99.90;;;;;;4992230;28;20390;-75
2021/12/11 11:05:03;;;;;;;6.00;5.50;;;4.50;99.90;;;;;;4984500;28;20382;-73
2021/12/11 11:07:29;;;;;;;5.68;5.18;;;4.40;99.90;;;;;;4988956;28;20058;-74
2021/12/11 11:09:57;;;;;;;7.28;5.80;;;4.40;99.90;;;;;;4992995;28;20498;-74
2021/12/11 11:12:29;;;;;;;6.10;5.50;;;4.50;99.90;;;;;;4984413;28;20025;-74
2021/12/11 11:14:55;;;;;;;5.35;4.85;;;4.50;99.90;;;;;;4983958;28;20386;-74
2021/12/11 11:17:25;;;;;;;7.50;6.45;;;4.50;99.90;;;;;;4987055;28;20042;-74
2021/12/11 11:19:52;;;;;;;6.67;6.03;;;4.50;99.90;;;;;;4989605;28;20022;-74
2021/12/11 11:22:23;;;;;;;7.75;6.97;;;4.60;99.90;;;;;;4989255;28;20029;-74
2021/12/11 11:25:10;;;;;;;6.80;6.20;;;4.70;99.90;;;;;;4990670;28;20022;-75
2021/12/11 11:27:36;;;;;;;6.50;5.90;;;4.60;99.90;;;;;;4983573;28;20019;-73
2021/12/11 11:30:09;;;;;;;6.93;6.32;;;4.70;99.90;;;;;;4990890;28;20022;-73
2021/12/11 11:32:35;;;;;;;6.30;5.70;;;4.70;99.90;;;;;;4986784;28;20022;-73
2021/12/11 11:35:07;;;;;;;6.15;5.55;;;4.80;99.90;;;;;;4988414;28;20041;-73
2021/12/11 11:37:35;;;;;;;5.10;4.65;;;4.80;99.90;;;;;;4991627;28;20441;-73
2021/12/11 11:40:04;;;;;;;6.80;5.38;;;4.70;99.90;;;;;;4988061;28;20015;-74
2021/12/11 11:42:30;;;;;;;6.60;5.90;;;4.70;99.90;;;;;;4983534;28;20015;-75
2021/12/11 11:44:56;;;;;;;6.00;5.40;;;4.80;99.90;;;;;;4983248;28;20037;-74
2021/12/11 11:47:22;;;;;;;5.78;5.18;;;4.70;99.90;;;;;;4983472;28;20010;-78
2021/12/11 11:49:49;;;;;;;5.18;4.75;;;4.80;99.90;;;;;;4989216;28;20019;-78
2021/12/11 11:52:19;;;;;;;6.13;5.63;;;4.70;99.90;;;;;;4991698;28;20103;-80
2021/12/11 11:54:48;;;;;;;5.53;5.03;;;4.70;99.90;;;;;;5005907;28;20065;-78
2021/12/11 11:57:19;;;;;;;6.45;5.78;;;4.70;99.90;;;;;;4989570;28;20026;-80
2021/12/11 11:59:46;;;;;;;6.82;5.93;;;4.70;99.90;;;;;;4990326;28;20101;-78
2021/12/11 12:02:21;;;;;;;7.22;5.93;;;4.80;99.90;;;;;;4995282;28;20061;-79
2021/12/11 12:04:51;;;;;;;7.53;6.20;;;4.90;99.90;;;;;;5012978;28;20030;-79
2021/12/11 12:07:24;;;;;;;5.75;5.25;;;4.90;99.90;;;;;;4990316;28;20026;-78
2021/12/11 12:09:50;;;;;;;5.68;4.93;;;4.80;99.90;;;;;;4985245;28;20022;-77
2021/12/11 12:12:16;;;;;;;6.72;6.13;;;4.80;99.90;;;;;;4986229;28;20046;-79
2021/12/11 12:14:44;;;;;;;5.63;5.13;;;4.70;99.90;;;;;;4985218;28;20544;-78
2021/12/11 12:17:15;;;;;;;6.20;5.45;;;4.80;99.90;;;;;;4989342;28;20139;-76
2021/12/11 12:19:40;;;;;;;;;;;4.80;99.90;;;;;;4989496;28;20032;-78
2021/12/11 12:22:09;;;;;;;6.47;5.85;;;4.80;99.90;;;;;;5030023;23;20038;-79
2021/12/11 12:24:37;;;;;;;5.88;5.25;;;4.80;99.90;;;;;;5008617;28;20091;-79
2021/12/11 12:27:06;;;;;;;5.70;5.20;;;4.80;99.90;;;;;;5026695;28;20010;-79
2021/12/11 12:29:33;;;;;;;6.13;5.53;;;4.80;99.90;;;;;;5022651;28;20021;-79
2021/12/11 12:32:12;;;;;;;6.75;5.88;;;4.70;99.90;;;;;;5016882;23;20046;-80
2021/12/11 12:34:38;;;;;;;6.45;5.82;;;4.80;99.90;;;;;;4996163;28;20023;-79
2021/12/11 12:37:06;;;;;;;6.68;5.97;;;4.80;99.90;;;;;;4990504;28;20034;-79
2021/12/11 12:39:38;;;;;;;6.93;6.18;;;4.90;99.90;;;;;;4992365;28;20029;-78
2021/12/11 12:42:17;;;;;;;6.40;5.80;;;5.00;99.90;;;;;;4989493;28;20022;-79
2021/12/11 12:44:46;;;;;;;8.00;6.25;;;5.00;99.90;;;;;;4981229;28;20026;-79
2021/12/11 12:47:19;;;;;;;5.82;5.32;;;4.90;99.90;;;;;;4984722;28;20034;-75
2021/12/11 12:49:51;;;;;;;7.50;5.85;;;5.00;99.90;;;;;;4983119;28;20026;-82
2021/12/11 12:52:23;;;;;;;11.13;6.43;;;5.00;99.90;;;;;;4991049;28;20397;-77
2021/12/11 12:54:50;;;;;;;5.93;4.50;;;4.90;99.90;;;;;;4989091;28;20019;-77
2021/12/11 12:57:32;;;;;;;6.38;5.75;;;4.80;99.90;;;;;;4992913;28;20098;-78
2021/12/11 13:00:13;;;;;;;6.22;5.63;;;4.80;99.90;;;;;;4988173;28;20034;-77
2021/12/11 13:05:17;;;;;;;7.00;5.75;;;4.90;99.90;;;;;;5005173;28;20046;-76
2021/12/11 13:07:45;;;;;;;6.30;5.70;;;4.90;99.90;;;;;;4988901;28;20065;-76
2021/12/11 13:10:18;;;;;;;7.00;6.32;;;4.90;99.90;;;;;;5008957;28;20294;-76
2021/12/11 13:12:47;;;;;;;6.72;5.25;;;4.90;99.90;;;;;;4997939;28;20566;-76
2021/12/11 13:15:21;;;;;;;8.00;6.07;;;5.00;99.90;;;;;;4982696;28;20113;-74
2021/12/11 13:17:50;;;;;;;6.03;5.40;;;5.10;99.90;;;;;;4996235;28;20042;-76
2021/12/11 13:20:27;;;;;;;9.40;6.20;;;5.10;99.90;;;;;;5003727;28;20049;-75
2021/12/11 13:22:53;;;;;;;6.50;5.22;;;5.10;99.90;;;;;;5003794;28;20040;-75
2021/12/11 13:25:22;;;;;;;6.97;5.68;;;5.00;99.90;;;;;;5008170;28;20030;-76
2021/12/11 13:27:52;;;;;;;7.32;6.40;;;5.10;99.90;;;;;;5005442;28;20017;-76
2021/12/11 13:30:25;;;;;;;6.72;6.13;;;5.10;99.90;;;;;;5004272;28;20022;-76